sensor_id;sensor_type;location;lat;lon;timestamp;P1;durP1;ratioP1;P2;durP2;ratioP2
18592;SDS011;9426;54.118;17.948;2022-09-09T00:04:33;3.27;;;1.70;;
18592;SDS011;9426;54.118;17.948;2022-09-09T00:09:59;7.13;;;2.03;;
18592;SDS011;9426;54.118;17.948;2022-09-09T00:15:32;4.93;;;1.80;;
18592;SDS011;9426;54.118;17.948;2022-09-09T00:21:02;4.23;;;1.80;;
18592;SDS011;9426;54.118;17.948;2022-09-09T00:26:32;3.30;;;1.90;;
18592;SDS011;9426;54.118;17.948;2022-09-09T00:32:04;6.33;;;1.80;;
18592;SDS011;9426;54.118;17.948;2022-09-09T00:37:33;3.80;;;2.03;;
18592;SDS011;9426;54.118;17.948;2022-09-09T00:43:09;3.53;;;1.80;;
18592;SDS011;9426;54.118;17.948;2022-09-09T00:48:45;2.60;;;1.57;;
18592;SDS011;9426;54.118;17.948;2022-09-09T01:05:44;2.60;;;1.40;;
18592;SDS011;9426;54.118;17.948;2022-09-09T01:11:14;1.93;;;1.30;;
18592;SDS011;9426;54.118;17.948;2022-09-09T01:16:44;1.77;;;1.20;;
18592;SDS011;9426;54.118;17.948;2022-09-09T01:22:10;3.17;;;1.53;;
18592;SDS011;9426;54.118;17.948;2022-09-09T01:27:43;3.63;;;1.70;;
18592;SDS011;9426;54.118;17.948;2022-09-09T01:33:10;3.07;;;1.70;;
18592;SDS011;9426;54.118;17.948;2022-09-09T01:38:37;2.97;;;1.70;;
18592;SDS011;9426;54.118;17.948;2022-09-09T01:44:03;5.43;;;2.53;;
18592;SDS011;9426;54.118;17.948;2022-09-09T01:49:30;12.83;;;3.67;;
18592;SDS011;9426;54.118;17.948;2022-09-09T01:55:01;10.37;;;4.03;;
18592;SDS011;9426;54.118;17.948;2022-09-09T02:00:32;9.10;;;3.33;;
18592;SDS011;9426;54.118;17.948;2022-09-09T02:06:00;6.97;;;3.73;;
18592;SDS011;9426;54.118;17.948;2022-09-09T02:11:35;7.97;;;3.50;;
18592;SDS011;9426;54.118;17.948;2022-09-09T02:17:09;6.87;;;4.00;;
18592;SDS011;9426;54.118;17.948;2022-09-09T02:22:50;6.93;;;3.53;;
18592;SDS011;9426;54.118;17.948;2022-09-09T02:28:16;6.23;;;3.27;;
18592;SDS011;9426;54.118;17.948;2022-09-09T02:33:44;7.77;;;3.77;;
18592;SDS011;9426;54.118;17.948;2022-09-09T02:39:12;7.30;;;3.40;;
18592;SDS011;9426;54.118;17.948;2022-09-09T02:44:36;7.60;;;4.17;;
18592;SDS011;9426;54.118;17.948;2022-09-09T02:50:11;6.90;;;3.93;;
18592;SDS011;9426;54.118;17.948;2022-09-09T02:55:38;12.63;;;4.43;;
18592;SDS011;9426;54.118;17.948;2022-09-09T03:01:05;6.87;;;4.00;;
18592;SDS011;9426;54.118;17.948;2022-09-09T03:06:31;7.10;;;4.00;;
18592;SDS011;9426;54.118;17.948;2022-09-09T03:12:05;12.33;;;4.47;;
18592;SDS011;9426;54.118;17.948;2022-09-09T03:17:29;8.43;;;4.23;;
18592;SDS011;9426;54.118;17.948;2022-09-09T03:22:53;7.90;;;4.23;;
18592;SDS011;9426;54.118;17.948;2022-09-09T03:28:17;7.83;;;4.57;;
18592;SDS011;9426;54.118;17.948;2022-09-09T03:33:43;10.63;;;5.10;;
18592;SDS011;9426;54.118;17.948;2022-09-09T03:39:10;9.23;;;4.63;;
18592;SDS011;9426;54.118;17.948;2022-09-09T03:44:36;10.80;;;4.60;;
18592;SDS011;9426;54.118;17.948;2022-09-09T03:49:59;7.60;;;4.40;;
18592;SDS011;9426;54.118;17.948;2022-09-09T03:55:25;7.77;;;4.50;;
18592;SDS011;9426;54.118;17.948;2022-09-09T04:00:52;8.77;;;4.57;;
18592;SDS011;9426;54.118;17.948;2022-09-09T04:06:16;10.33;;;4.50;;
18592;SDS011;9426;54.118;17.948;2022-09-09T04:11:43;7.23;;;4.20;;
18592;SDS011;9426;54.118;17.948;2022-09-09T04:17:08;9.63;;;4.43;;
18592;SDS011;9426;54.118;17.948;2022-09-09T04:22:31;8.23;;;4.87;;
18592;SDS011;9426;54.118;17.948;2022-09-09T04:27:57;11.23;;;4.57;;
18592;SDS011;9426;54.118;17.948;2022-09-09T04:33:21;10.40;;;4.97;;
18592;SDS011;9426;54.118;17.948;2022-09-09T04:38:47;9.13;;;5.13;;
18592;SDS011;9426;54.118;17.948;2022-09-09T04:44:13;7.27;;;4.67;;
18592;SDS011;9426;54.118;17.948;2022-09-09T04:49:37;10.87;;;5.37;;
18592;SDS011;9426;54.118;17.948;2022-09-09T04:55:01;11.00;;;5.73;;
18592;SDS011;9426;54.118;17.948;2022-09-09T05:00:26;12.20;;;6.07;;
18592;SDS011;9426;54.118;17.948;2022-09-09T05:05:50;8.90;;;5.53;;
18592;SDS011;9426;54.118;17.948;2022-09-09T05:11:17;10.07;;;5.80;;
18592;SDS011;9426;54.118;17.948;2022-09-09T05:16:45;13.00;;;6.80;;
18592;SDS011;9426;54.118;17.948;2022-09-09T05:22:09;11.53;;;7.00;;
18592;SDS011;9426;54.118;17.948;2022-09-09T05:27:38;10.90;;;6.70;;
18592;SDS011;9426;54.118;17.948;2022-09-09T05:33:03;10.27;;;6.17;;
18592;SDS011;9426;54.118;17.948;2022-09-09T05:38:27;13.10;;;6.30;;
18592;SDS011;9426;54.118;17.948;2022-09-09T05:43:50;12.20;;;6.07;;
18592;SDS011;9426;54.118;17.948;2022-09-09T05:49:16;11.93;;;6.67;;
18592;SDS011;9426;54.118;17.948;2022-09-09T05:54:41;10.40;;;6.13;;
18592;SDS011;9426;54.118;17.948;2022-09-09T06:00:05;8.80;;;5.70;;
18592;SDS011;9426;54.118;17.948;2022-09-09T06:05:34;9.50;;;6.40;;
18592;SDS011;9426;54.118;17.948;2022-09-09T06:11:00;9.00;;;5.97;;
18592;SDS011;9426;54.118;17.948;2022-09-09T06:16:25;7.53;;;5.10;;
18592;SDS011;9426;54.118;17.948;2022-09-09T06:21:51;8.97;;;5.97;;
18592;SDS011;9426;54.118;17.948;2022-09-09T06:27:16;7.23;;;4.57;;
18592;SDS011;9426;54.118;17.948;2022-09-09T06:32:39;7.53;;;5.20;;
18592;SDS011;9426;54.118;17.948;2022-09-09T06:38:05;8.40;;;5.13;;
18592;SDS011;9426;54.118;17.948;2022-09-09T06:43:29;6.63;;;5.00;;
18592;SDS011;9426;54.118;17.948;2022-09-09T06:48:54;8.07;;;4.93;;
18592;SDS011;9426;54.118;17.948;2022-09-09T06:54:22;5.33;;;4.20;;
18592;SDS011;9426;54.118;17.948;2022-09-09T06:59:47;4.97;;;3.67;;
18592;SDS011;9426;54.118;17.948;2022-09-09T07:05:11;4.27;;;3.20;;
18592;SDS011;9426;54.118;17.948;2022-09-09T07:10:38;3.57;;;2.70;;
18592;SDS011;9426;54.118;17.948;2022-09-09T07:16:03;3.80;;;2.50;;
18592;SDS011;9426;54.118;17.948;2022-09-09T07:21:28;3.20;;;2.30;;
18592;SDS011;9426;54.118;17.948;2022-09-09T07:26:54;2.83;;;2.00;;
18592;SDS011;9426;54.118;17.948;2022-09-09T07:32:18;2.60;;;1.93;;
18592;SDS011;9426;54.118;17.948;2022-09-09T07:37:42;2.47;;;1.80;;
18592;SDS011;9426;54.118;17.948;2022-09-09T07:43:10;4.30;;;2.20;;
18592;SDS011;9426;54.118;17.948;2022-09-09T07:48:36;2.13;;;1.93;;
18592;SDS011;9426;54.118;17.948;2022-09-09T07:54:01;2.07;;;1.80;;
18592;SDS011;9426;54.118;17.948;2022-09-09T07:59:29;5.53;;;2.77;;
18592;SDS011;9426;54.118;17.948;2022-09-09T08:04:52;3.37;;;2.40;;
18592;SDS011;9426;54.118;17.948;2022-09-09T08:10:16;2.90;;;1.77;;
18592;SDS011;9426;54.118;17.948;2022-09-09T08:15:44;2.13;;;1.47;;
18592;SDS011;9426;54.118;17.948;2022-09-09T08:21:08;2.23;;;1.63;;
18592;SDS011;9426;54.118;17.948;2022-09-09T08:26:35;3.13;;;2.17;;
18592;SDS011;9426;54.118;17.948;2022-09-09T08:32:01;3.40;;;2.50;;
18592;SDS011;9426;54.118;17.948;2022-09-09T08:37:26;4.07;;;2.40;;
18592;SDS011;9426;54.118;17.948;2022-09-09T08:42:50;4.20;;;2.00;;
18592;SDS011;9426;54.118;17.948;2022-09-09T08:48:23;3.80;;;2.00;;
18592;SDS011;9426;54.118;17.948;2022-09-09T08:54:02;3.00;;;2.50;;
18592;SDS011;9426;54.118;17.948;2022-09-09T08:59:27;3.60;;;2.50;;
18592;SDS011;9426;54.118;17.948;2022-09-09T09:04:58;2.37;;;2.00;;
18592;SDS011;9426;54.118;17.948;2022-09-09T09:10:35;2.90;;;2.10;;
18592;SDS011;9426;54.118;17.948;2022-09-09T09:16:14;1.97;;;1.53;;
18592;SDS011;9426;54.118;17.948;2022-09-09T09:21:50;1.90;;;1.70;;
18592;SDS011;9426;54.118;17.948;2022-09-09T09:27:21;2.80;;;1.67;;
18592;SDS011;9426;54.118;17.948;2022-09-09T09:32:54;4.47;;;2.60;;
18592;SDS011;9426;54.118;17.948;2022-09-09T09:38:25;3.77;;;2.73;;
18592;SDS011;9426;54.118;17.948;2022-09-09T09:44:20;2.93;;;2.07;;
18592;SDS011;9426;54.118;17.948;2022-09-09T09:49:52;2.03;;;1.40;;
18592;SDS011;9426;54.118;17.948;2022-09-09T09:55:19;2.07;;;1.50;;
18592;SDS011;9426;54.118;17.948;2022-09-09T10:00:47;3.00;;;2.10;;
18592;SDS011;9426;54.118;17.948;2022-09-09T10:06:14;2.47;;;1.80;;
18592;SDS011;9426;54.118;17.948;2022-09-09T10:11:42;2.70;;;2.23;;
18592;SDS011;9426;54.118;17.948;2022-09-09T10:17:15;4.23;;;3.00;;
18592;SDS011;9426;54.118;17.948;2022-09-09T10:22:50;5.37;;;3.50;;
18592;SDS011;9426;54.118;17.948;2022-09-09T10:28:29;6.73;;;3.93;;
18592;SDS011;9426;54.118;17.948;2022-09-09T10:33:59;6.13;;;3.33;;
18592;SDS011;9426;54.118;17.948;2022-09-09T10:39:32;5.13;;;3.50;;
18592;SDS011;9426;54.118;17.948;2022-09-09T10:45:03;5.23;;;3.20;;
18592;SDS011;9426;54.118;17.948;2022-09-09T10:50:51;6.07;;;3.70;;
18592;SDS011;9426;54.118;17.948;2022-09-09T10:56:24;4.27;;;2.73;;
18592;SDS011;9426;54.118;17.948;2022-09-09T11:01:52;5.13;;;3.63;;
18592;SDS011;9426;54.118;17.948;2022-09-09T11:07:22;5.17;;;3.33;;
18592;SDS011;9426;54.118;17.948;2022-09-09T11:12:51;5.83;;;3.83;;
18592;SDS011;9426;54.118;17.948;2022-09-09T11:18:21;5.80;;;4.23;;
18592;SDS011;9426;54.118;17.948;2022-09-09T11:23:46;4.50;;;3.67;;
18592;SDS011;9426;54.118;17.948;2022-09-09T11:29:17;6.43;;;3.93;;
18592;SDS011;9426;54.118;17.948;2022-09-09T11:35:10;8.20;;;4.57;;
18592;SDS011;9426;54.118;17.948;2022-09-09T11:40:45;7.73;;;4.47;;
18592;SDS011;9426;54.118;17.948;2022-09-09T11:46:09;6.50;;;4.40;;
18592;SDS011;9426;54.118;17.948;2022-09-09T11:51:36;7.47;;;4.70;;
18592;SDS011;9426;54.118;17.948;2022-09-09T11:57:00;7.80;;;4.80;;
18592;SDS011;9426;54.118;17.948;2022-09-09T12:02:27;6.07;;;4.40;;
18592;SDS011;9426;54.118;17.948;2022-09-09T12:07:55;6.10;;;4.50;;
18592;SDS011;9426;54.118;17.948;2022-09-09T12:13:20;7.00;;;4.70;;
18592;SDS011;9426;54.118;17.948;2022-09-09T12:18:45;9.73;;;6.10;;
18592;SDS011;9426;54.118;17.948;2022-09-09T12:24:11;7.30;;;5.50;;
18592;SDS011;9426;54.118;17.948;2022-09-09T12:29:40;9.47;;;6.40;;
18592;SDS011;9426;54.118;17.948;2022-09-09T12:35:13;8.07;;;5.30;;
18592;SDS011;9426;54.118;17.948;2022-09-09T12:40:53;8.33;;;5.90;;
18592;SDS011;9426;54.118;17.948;2022-09-09T12:46:21;8.77;;;6.37;;
18592;SDS011;9426;54.118;17.948;2022-09-09T12:51:51;7.50;;;6.03;;
18592;SDS011;9426;54.118;17.948;2022-09-09T12:57:16;10.00;;;7.50;;
18592;SDS011;9426;54.118;17.948;2022-09-09T13:02:46;11.47;;;8.37;;
18592;SDS011;9426;54.118;17.948;2022-09-09T13:08:12;11.97;;;7.73;;
18592;SDS011;9426;54.118;17.948;2022-09-09T13:13:39;11.63;;;8.20;;
18592;SDS011;9426;54.118;17.948;2022-09-09T13:19:06;16.47;;;10.33;;
18592;SDS011;9426;54.118;17.948;2022-09-09T13:24:32;12.53;;;9.37;;
18592;SDS011;9426;54.118;17.948;2022-09-09T13:29:58;14.60;;;10.63;;
18592;SDS011;9426;54.118;17.948;2022-09-09T13:35:22;12.30;;;8.90;;
18592;SDS011;9426;54.118;17.948;2022-09-09T13:40:52;14.97;;;10.27;;
18592;SDS011;9426;54.118;17.948;2022-09-09T13:46:28;14.03;;;9.80;;
18592;SDS011;9426;54.118;17.948;2022-09-09T13:52:02;18.77;;;13.20;;
18592;SDS011;9426;54.118;17.948;2022-09-09T13:57:27;16.60;;;11.90;;
18592;SDS011;9426;54.118;17.948;2022-09-09T14:02:51;20.60;;;12.77;;
18592;SDS011;9426;54.118;17.948;2022-09-09T14:08:20;19.03;;;12.80;;
18592;SDS011;9426;54.118;17.948;2022-09-09T14:13:47;21.63;;;13.87;;
18592;SDS011;9426;54.118;17.948;2022-09-09T14:19:14;32.27;;;19.67;;
18592;SDS011;9426;54.118;17.948;2022-09-09T14:24:38;26.10;;;16.47;;
18592;SDS011;9426;54.118;17.948;2022-09-09T14:30:02;26.30;;;15.77;;
18592;SDS011;9426;54.118;17.948;2022-09-09T14:35:27;19.57;;;13.63;;
18592;SDS011;9426;54.118;17.948;2022-09-09T14:40:50;38.17;;;24.00;;
18592;SDS011;9426;54.118;17.948;2022-09-09T14:46:14;25.40;;;16.77;;
18592;SDS011;9426;54.118;17.948;2022-09-09T14:51:40;20.13;;;13.13;;
18592;SDS011;9426;54.118;17.948;2022-09-09T14:57:03;19.47;;;12.27;;
18592;SDS011;9426;54.118;17.948;2022-09-09T15:02:27;18.87;;;12.90;;
18592;SDS011;9426;54.118;17.948;2022-09-09T15:07:52;19.23;;;12.87;;
18592;SDS011;9426;54.118;17.948;2022-09-09T15:13:16;17.20;;;11.70;;
18592;SDS011;9426;54.118;17.948;2022-09-09T15:18:40;19.73;;;13.40;;
18592;SDS011;9426;54.118;17.948;2022-09-09T15:24:08;23.43;;;13.87;;
18592;SDS011;9426;54.118;17.948;2022-09-09T15:29:32;20.97;;;13.70;;
18592;SDS011;9426;54.118;17.948;2022-09-09T15:34:57;17.13;;;11.60;;
18592;SDS011;9426;54.118;17.948;2022-09-09T15:40:23;17.60;;;12.17;;
18592;SDS011;9426;54.118;17.948;2022-09-09T15:45:49;16.57;;;11.47;;
18592;SDS011;9426;54.118;17.948;2022-09-09T15:51:17;18.10;;;12.57;;
18592;SDS011;9426;54.118;17.948;2022-09-09T15:56:59;33.30;;;19.87;;
18592;SDS011;9426;54.118;17.948;2022-09-09T16:02:24;46.07;;;24.97;;
18592;SDS011;9426;54.118;17.948;2022-09-09T16:07:47;30.13;;;19.60;;
18592;SDS011;9426;54.118;17.948;2022-09-09T16:13:12;27.87;;;16.77;;
18592;SDS011;9426;54.118;17.948;2022-09-09T16:18:35;26.47;;;17.40;;
18592;SDS011;9426;54.118;17.948;2022-09-09T16:24:00;27.50;;;17.73;;
18592;SDS011;9426;54.118;17.948;2022-09-09T16:29:26;29.83;;;19.63;;
18592;SDS011;9426;54.118;17.948;2022-09-09T16:34:50;28.47;;;17.60;;
18592;SDS011;9426;54.118;17.948;2022-09-09T16:40:13;29.27;;;18.23;;
18592;SDS011;9426;54.118;17.948;2022-09-09T16:45:43;27.60;;;18.50;;
18592;SDS011;9426;54.118;17.948;2022-09-09T16:51:07;28.73;;;18.00;;
18592;SDS011;9426;54.118;17.948;2022-09-09T16:56:36;26.67;;;17.43;;
18592;SDS011;9426;54.118;17.948;2022-09-09T17:02:03;25.30;;;17.73;;
18592;SDS011;9426;54.118;17.948;2022-09-09T17:07:27;36.80;;;21.83;;
18592;SDS011;9426;54.118;17.948;2022-09-09T17:12:50;34.60;;;20.60;;
18592;SDS011;9426;54.118;17.948;2022-09-09T17:18:15;31.87;;;19.93;;
18592;SDS011;9426;54.118;17.948;2022-09-09T17:23:38;31.07;;;20.73;;
18592;SDS011;9426;54.118;17.948;2022-09-09T17:29:02;39.07;;;24.97;;
18592;SDS011;9426;54.118;17.948;2022-09-09T17:34:28;35.70;;;22.23;;
18592;SDS011;9426;54.118;17.948;2022-09-09T17:39:51;41.73;;;24.90;;
18592;SDS011;9426;54.118;17.948;2022-09-09T17:45:14;38.40;;;23.60;;
18592;SDS011;9426;54.118;17.948;2022-09-09T17:50:39;33.47;;;21.77;;
18592;SDS011;9426;54.118;17.948;2022-09-09T17:56:03;43.23;;;25.40;;
18592;SDS011;9426;54.118;17.948;2022-09-09T18:01:29;45.73;;;27.90;;
18592;SDS011;9426;54.118;17.948;2022-09-09T18:06:56;50.43;;;29.67;;
18592;SDS011;9426;54.118;17.948;2022-09-09T18:12:20;46.57;;;27.23;;
18592;SDS011;9426;54.118;17.948;2022-09-09T18:17:43;48.13;;;27.93;;
18592;SDS011;9426;54.118;17.948;2022-09-09T18:23:08;49.37;;;27.93;;
18592;SDS011;9426;54.118;17.948;2022-09-09T18:28:32;46.63;;;26.80;;
18592;SDS011;9426;54.118;17.948;2022-09-09T18:33:56;47.10;;;26.97;;
18592;SDS011;9426;54.118;17.948;2022-09-09T18:39:23;49.97;;;27.33;;
18592;SDS011;9426;54.118;17.948;2022-09-09T18:44:48;53.63;;;29.03;;
18592;SDS011;9426;54.118;17.948;2022-09-09T18:50:11;45.20;;;25.57;;
18592;SDS011;9426;54.118;17.948;2022-09-09T18:55:36;57.63;;;31.37;;
18592;SDS011;9426;54.118;17.948;2022-09-09T19:01:00;65.03;;;32.83;;
18592;SDS011;9426;54.118;17.948;2022-09-09T19:06:25;59.33;;;31.60;;
18592;SDS011;9426;54.118;17.948;2022-09-09T19:11:52;48.17;;;25.47;;
18592;SDS011;9426;54.118;17.948;2022-09-09T19:17:15;49.27;;;26.50;;
18592;SDS011;9426;54.118;17.948;2022-09-09T19:22:38;49.27;;;25.03;;
18592;SDS011;9426;54.118;17.948;2022-09-09T19:28:03;50.97;;;27.83;;
18592;SDS011;9426;54.118;17.948;2022-09-09T19:33:27;52.23;;;27.37;;
18592;SDS011;9426;54.118;17.948;2022-09-09T19:38:51;43.70;;;24.73;;
18592;SDS011;9426;54.118;17.948;2022-09-09T19:44:16;57.90;;;31.00;;
18592;SDS011;9426;54.118;17.948;2022-09-09T19:49:40;46.07;;;25.47;;
18592;SDS011;9426;54.118;17.948;2022-09-09T19:55:06;50.33;;;27.33;;
18592;SDS011;9426;54.118;17.948;2022-09-09T20:00:33;44.53;;;25.30;;
18592;SDS011;9426;54.118;17.948;2022-09-09T20:05:59;42.53;;;25.13;;
18592;SDS011;9426;54.118;17.948;2022-09-09T20:11:23;45.77;;;25.87;;
18592;SDS011;9426;54.118;17.948;2022-09-09T20:16:48;42.83;;;24.27;;
18592;SDS011;9426;54.118;17.948;2022-09-09T20:22:11;48.00;;;25.67;;
18592;SDS011;9426;54.118;17.948;2022-09-09T20:27:34;46.63;;;26.40;;
18592;SDS011;9426;54.118;17.948;2022-09-09T20:32:59;47.67;;;25.33;;
18592;SDS011;9426;54.118;17.948;2022-09-09T20:38:24;43.20;;;23.77;;
18592;SDS011;9426;54.118;17.948;2022-09-09T20:43:49;43.37;;;23.67;;
18592;SDS011;9426;54.118;17.948;2022-09-09T20:49:15;38.50;;;22.37;;
18592;SDS011;9426;54.118;17.948;2022-09-09T20:54:39;36.20;;;21.80;;
18592;SDS011;9426;54.118;17.948;2022-09-09T21:00:03;46.13;;;26.07;;
18592;SDS011;9426;54.118;17.948;2022-09-09T21:05:29;45.57;;;26.30;;
18592;SDS011;9426;54.118;17.948;2022-09-09T21:10:53;48.37;;;25.53;;
18592;SDS011;9426;54.118;17.948;2022-09-09T21:16:17;34.97;;;21.70;;
18592;SDS011;9426;54.118;17.948;2022-09-09T21:21:42;48.77;;;26.37;;
18592;SDS011;9426;54.118;17.948;2022-09-09T21:27:07;49.83;;;26.97;;
18592;SDS011;9426;54.118;17.948;2022-09-09T21:32:31;50.90;;;27.87;;
18592;SDS011;9426;54.118;17.948;2022-09-09T21:37:56;38.73;;;21.53;;
18592;SDS011;9426;54.118;17.948;2022-09-09T21:43:20;34.33;;;19.33;;
18592;SDS011;9426;54.118;17.948;2022-09-09T21:48:43;29.97;;;17.10;;
18592;SDS011;9426;54.118;17.948;2022-09-09T21:54:08;35.40;;;20.80;;
18592;SDS011;9426;54.118;17.948;2022-09-09T21:59:31;37.77;;;22.23;;
18592;SDS011;9426;54.118;17.948;2022-09-09T22:04:55;19.47;;;12.63;;
18592;SDS011;9426;54.118;17.948;2022-09-09T22:10:19;19.17;;;12.10;;
18592;SDS011;9426;54.118;17.948;2022-09-09T22:15:44;14.50;;;9.80;;
18592;SDS011;9426;54.118;17.948;2022-09-09T22:21:09;16.10;;;10.30;;
18592;SDS011;9426;54.118;17.948;2022-09-09T22:26:35;29.30;;;17.73;;
18592;SDS011;9426;54.118;17.948;2022-09-09T22:31:59;29.57;;;18.47;;
18592;SDS011;9426;54.118;17.948;2022-09-09T22:37:23;40.13;;;22.50;;
18592;SDS011;9426;54.118;17.948;2022-09-09T22:42:48;52.93;;;28.07;;
18592;SDS011;9426;54.118;17.948;2022-09-09T22:48:12;56.40;;;29.23;;
18592;SDS011;9426;54.118;17.948;2022-09-09T22:53:37;54.03;;;28.33;;
18592;SDS011;9426;54.118;17.948;2022-09-09T22:59:03;51.03;;;27.67;;
18592;SDS011;9426;54.118;17.948;2022-09-09T23:04:26;57.53;;;30.27;;
18592;SDS011;9426;54.118;17.948;2022-09-09T23:10:09;54.53;;;29.67;;
18592;SDS011;9426;54.118;17.948;2022-09-09T23:15:52;61.77;;;34.73;;
18592;SDS011;9426;54.118;17.948;2022-09-09T23:21:35;60.97;;;33.70;;
18592;SDS011;9426;54.118;17.948;2022-09-09T23:27:17;60.53;;;32.07;;
18592;SDS011;9426;54.118;17.948;2022-09-09T23:33:02;61.93;;;30.70;;
18592;SDS011;9426;54.118;17.948;2022-09-09T23:38:44;44.87;;;23.67;;
18592;SDS011;9426;54.118;17.948;2022-09-09T23:44:07;52.13;;;27.73;;
18592;SDS011;9426;54.118;17.948;2022-09-09T23:49:34;39.73;;;23.10;;
18592;SDS011;9426;54.118;17.948;2022-09-09T23:54:59;48.07;;;24.43;;
